Home » Photos » N700CK DSC_3027

N700CK DSC_3027

N700CK DSC_3027

N700CK
Boeing 747-4R7(F)
Kalitta Air
B744
K4 / CKS
A954CA
Djibouti (JIB) Riga (RIX)
EYSA 300620Z 02004KT 330V080 CAVOK 13/01 Q1025 BLU NOSIG
EVRA 300620Z 05003KT 360V080 CAVOK 13/M01 Q1024 NOSIG

(read more)

Photo taken on 30 May 2019 (© sauliusjulius / Flickr)

Related tags :
 n700ck, boeing, 747-4r7(f), kalitta, air, b744, k4, cks, a954ca, djibouti, (jib), riga, (rix)
 

Djibouti Photos